Tijucas, Brazil
Current Conditions -  °F | °C
As of 2:00 PM on Sunday 23 Nov 2014 (Local Time) from SBNF Reporting Station
Broken Clouds Broken Clouds  
Wind Chill: 81°   Ceiling: 6000
Heat Index: 83°   Visibility: 6mi
Dew Point: 66°   Wind: 15mph
Humidity: 61%   Direction: 140°SE
Pressure: 29.94"   Gusts: NA
Location:  27.21°S, 48.61°W
Report Text: SBNF 231600Z 14013KT 9999 SCT045 BKN060 27/19 Q1014
Loading
Personal Weather Stations






























Interactive Weather Map New forecast layout! Learn more

10-Day Weather Forecast

Advertisements
Track Severe Weather on mobile